createdAt,value
2018-12-03T00:01:45.736Z,9.00
2018-12-03T00:04:22.138Z,9.00
2018-12-03T00:06:56.575Z,8.90
2018-12-03T00:09:31.091Z,8.90
2018-12-03T00:12:05.892Z,8.90
2018-12-03T00:14:40.407Z,8.80
2018-12-03T00:17:14.885Z,8.90
2018-12-03T00:19:49.240Z,8.80
2018-12-03T00:22:23.742Z,8.80
2018-12-03T00:24:58.258Z,8.80
2018-12-03T00:27:32.562Z,8.80
2018-12-03T00:30:09.873Z,8.80
2018-12-03T00:32:44.127Z,8.80
2018-12-03T00:35:18.547Z,8.80
2018-12-03T00:37:53.197Z,8.80
2018-12-03T00:40:27.614Z,8.80
2018-12-03T00:43:02.011Z,8.80
2018-12-03T00:45:43.043Z,8.80
2018-12-03T00:48:17.435Z,8.90
2018-12-03T00:50:51.862Z,8.90
2018-12-03T00:53:26.150Z,8.90
2018-12-03T00:56:00.464Z,8.90
2018-12-03T00:58:35.116Z,9.00
2018-12-03T01:01:09.484Z,9.10
2018-12-03T01:03:43.852Z,9.10
2018-12-03T01:06:18.383Z,9.10
2018-12-03T01:08:52.681Z,9.20
2018-12-03T01:11:26.994Z,9.10
2018-12-03T01:14:01.258Z,9.00
2018-12-03T01:16:35.498Z,9.00
2018-12-03T01:19:09.740Z,9.00
2018-12-03T01:21:44.235Z,9.00
2018-12-03T01:24:18.589Z,8.90
2018-12-03T01:26:52.826Z,8.90
2018-12-03T01:29:27.095Z,8.90
2018-12-03T01:32:01.299Z,8.90
2018-12-03T01:34:35.612Z,9.00
2018-12-03T01:37:09.937Z,9.00
2018-12-03T01:39:44.315Z,9.00
2018-12-03T01:42:18.692Z,9.10
2018-12-03T01:44:52.978Z,9.10
2018-12-03T01:47:27.241Z,9.10
2018-12-03T01:50:01.748Z,9.20
2018-12-03T01:52:36.009Z,9.20
2018-12-03T01:55:10.987Z,9.20
2018-12-03T01:57:45.290Z,9.20
2018-12-03T02:00:20.086Z,9.20
2018-12-03T02:02:54.360Z,9.20
2018-12-03T02:05:28.617Z,9.20
2018-12-03T02:08:02.953Z,9.10
2018-12-03T02:10:37.306Z,9.10
2018-12-03T02:13:11.814Z,9.10
2018-12-03T02:15:46.440Z,9.10
2018-12-03T02:18:20.882Z,8.90
2018-12-03T02:20:55.451Z,8.80
2018-12-03T02:23:29.778Z,8.80
2018-12-03T02:26:04.087Z,8.80
2018-12-03T02:28:38.699Z,8.90
2018-12-03T02:31:13.179Z,8.90
2018-12-03T02:33:47.537Z,8.90
2018-12-03T02:36:21.918Z,8.90
2018-12-03T02:38:56.250Z,9.00
2018-12-03T02:41:30.508Z,9.00
2018-12-03T02:44:04.898Z,9.00
2018-12-03T02:46:39.213Z,9.20
2018-12-03T02:49:13.546Z,9.30
2018-12-03T02:51:48.015Z,9.50
2018-12-03T02:54:22.294Z,9.50
2018-12-03T02:56:56.868Z,9.60
2018-12-03T02:59:32.248Z,9.60
2018-12-03T03:04:47.318Z,9.60
2018-12-03T03:07:21.741Z,9.60
2018-12-03T03:09:56.054Z,9.50
2018-12-03T03:12:30.362Z,9.50
2018-12-03T03:15:06.885Z,9.50
2018-12-03T03:17:41.363Z,9.50
2018-12-03T03:20:15.691Z,9.50
2018-12-03T03:22:49.965Z,9.40
2018-12-03T03:25:24.361Z,9.40
2018-12-03T03:27:58.825Z,9.40
2018-12-03T03:30:33.110Z,9.40
2018-12-03T03:33:07.446Z,9.40
2018-12-03T03:35:41.687Z,9.40
2018-12-03T03:38:16.002Z,9.40
2018-12-03T03:40:50.460Z,9.40
2018-12-03T03:43:24.806Z,9.40
2018-12-03T03:45:59.190Z,9.40
2018-12-03T03:48:33.587Z,9.40
2018-12-03T03:51:08.028Z,9.50
2018-12-03T03:53:42.359Z,9.50
2018-12-03T03:56:16.671Z,9.50
2018-12-03T03:58:50.962Z,9.50
2018-12-03T04:01:25.428Z,9.60
2018-12-03T04:03:59.882Z,9.60
2018-12-03T04:06:34.373Z,9.60
2018-12-03T04:09:08.759Z,9.60
2018-12-03T04:11:43.057Z,9.60
2018-12-03T04:14:17.502Z,9.60
2018-12-03T04:16:51.805Z,9.60
2018-12-03T04:19:26.340Z,9.70
2018-12-03T04:22:00.682Z,9.70
2018-12-03T04:24:35.182Z,9.60
2018-12-03T04:27:09.473Z,9.60
2018-12-03T04:29:43.753Z,9.60
2018-12-03T04:32:18.150Z,9.60
2018-12-03T04:34:52.577Z,9.50
2018-12-03T04:37:27.110Z,9.40
2018-12-03T04:40:01.487Z,9.30
2018-12-03T04:42:35.757Z,9.30
2018-12-03T04:45:13.218Z,9.30
2018-12-03T04:47:48.826Z,9.30
2018-12-03T04:50:23.228Z,9.30
2018-12-03T04:52:57.713Z,9.20
2018-12-03T04:55:32.153Z,9.20
2018-12-03T04:58:06.556Z,9.20
2018-12-03T05:00:40.825Z,9.20
2018-12-03T05:03:15.363Z,9.20
2018-12-03T05:05:49.885Z,9.20
2018-12-03T05:08:24.344Z,9.20
2018-12-03T05:10:58.823Z,9.10
2018-12-03T05:13:33.182Z,9.10
2018-12-03T05:16:07.485Z,9.10
2018-12-03T05:18:41.911Z,9.00
2018-12-03T05:21:16.158Z,9.00
2018-12-03T05:23:50.484Z,8.90
2018-12-03T05:26:24.770Z,8.90
2018-12-03T05:28:59.171Z,8.90
2018-12-03T05:31:33.560Z,8.90
2018-12-03T05:34:08.002Z,8.90
2018-12-03T05:36:42.301Z,8.80
2018-12-03T05:39:16.753Z,8.80
2018-12-03T05:41:51.157Z,8.80
2018-12-03T05:44:25.413Z,8.80
2018-12-03T05:46:59.690Z,8.90
2018-12-03T05:49:33.947Z,8.90
2018-12-03T05:52:08.225Z,9.00
2018-12-03T05:54:42.503Z,9.00
2018-12-03T05:57:16.965Z,9.10
2018-12-03T05:59:51.330Z,9.10
2018-12-03T06:02:25.580Z,9.20
2018-12-03T06:04:59.860Z,9.20
2018-12-03T06:07:34.115Z,9.20
2018-12-03T06:10:09.889Z,9.30
2018-12-03T06:12:44.313Z,9.30
2018-12-03T06:15:19.653Z,9.30
2018-12-03T06:17:54.191Z,9.30
2018-12-03T06:20:28.695Z,9.30
2018-12-03T06:23:03.021Z,9.40
2018-12-03T06:25:37.361Z,9.40
2018-12-03T06:28:11.704Z,9.40
2018-12-03T06:30:46.117Z,9.50
2018-12-03T06:33:20.541Z,9.50
2018-12-03T06:35:54.948Z,9.40
2018-12-03T06:38:29.298Z,9.40
2018-12-03T06:41:03.804Z,9.40
2018-12-03T06:43:38.206Z,9.30
2018-12-03T06:46:12.482Z,9.30
2018-12-03T06:48:46.841Z,9.20
2018-12-03T06:51:21.183Z,9.30
2018-12-03T06:53:55.602Z,9.30
2018-12-03T06:56:29.954Z,9.30
2018-12-03T06:59:04.424Z,9.40
2018-12-03T07:01:38.872Z,9.30
2018-12-03T07:04:13.152Z,9.30
2018-12-03T07:06:47.614Z,9.30
2018-12-03T07:09:21.984Z,9.20
2018-12-03T07:11:56.411Z,9.20
2018-12-03T07:14:30.864Z,9.20
2018-12-03T07:17:05.733Z,9.20
2018-12-03T07:19:40.254Z,9.20
2018-12-03T07:22:14.861Z,9.30
2018-12-03T07:24:49.121Z,9.30
2018-12-03T07:27:23.685Z,9.40
2018-12-03T07:29:58.040Z,9.50
2018-12-03T07:32:32.422Z,9.60
2018-12-03T07:35:06.803Z,9.60
2018-12-03T07:37:41.109Z,9.70
2018-12-03T07:40:15.595Z,9.70
2018-12-03T07:42:50.275Z,9.70
2018-12-03T07:45:25.544Z,9.70
2018-12-03T07:48:00.032Z,9.80
2018-12-03T07:50:34.407Z,9.80
2018-12-03T07:53:08.826Z,9.80
2018-12-03T07:55:43.205Z,9.80
2018-12-03T07:58:19.460Z,9.80
2018-12-03T08:00:55.270Z,9.80
2018-12-03T08:03:29.657Z,9.90
2018-12-03T08:06:04.220Z,9.90
2018-12-03T08:08:38.649Z,9.90
2018-12-03T08:11:12.984Z,9.90
2018-12-03T08:13:47.374Z,10.00
2018-12-03T08:16:39.650Z,10.10
2018-12-03T08:19:13.870Z,10.10
2018-12-03T08:21:48.255Z,10.10
2018-12-03T08:24:22.568Z,10.00
2018-12-03T08:26:57.182Z,9.90
2018-12-03T08:29:31.646Z,9.90
2018-12-03T08:32:06.230Z,9.90
2018-12-03T08:34:40.620Z,10.00
2018-12-03T08:37:15.067Z,10.10
2018-12-03T08:39:49.423Z,10.20
2018-12-03T08:42:23.832Z,10.30
2018-12-03T08:44:58.067Z,10.30
2018-12-03T08:47:32.489Z,10.40
2018-12-03T08:50:11.360Z,10.40
2018-12-03T08:52:45.583Z,10.50
2018-12-03T08:55:19.838Z,10.60
2018-12-03T08:57:54.084Z,10.60
2018-12-03T09:00:29.552Z,10.60
2018-12-03T09:03:20.790Z,10.70
2018-12-03T09:05:56.271Z,10.70
2018-12-03T09:08:29.581Z,10.70
2018-12-03T09:11:03.899Z,10.80
2018-12-03T09:13:38.168Z,10.80
2018-12-03T09:16:12.427Z,10.90
2018-12-03T09:18:46.648Z,10.90
2018-12-03T09:21:21.002Z,11.00
2018-12-03T09:23:59.520Z,11.00
2018-12-03T09:26:37.812Z,11.00
2018-12-03T09:29:12.367Z,11.10
2018-12-03T09:31:47.648Z,11.10
2018-12-03T09:34:21.886Z,11.20
2018-12-03T09:36:56.269Z,11.30
2018-12-03T09:39:30.484Z,11.30
2018-12-03T09:42:05.777Z,11.40
2018-12-03T09:44:39.578Z,11.40
2018-12-03T09:47:13.796Z,11.40
2018-12-03T09:49:48.281Z,11.50
2018-12-03T09:52:22.629Z,11.60
2018-12-03T09:54:56.978Z,11.70
2018-12-03T09:57:31.467Z,11.70
2018-12-03T10:00:06.169Z,11.80
2018-12-03T10:02:40.731Z,11.90
2018-12-03T10:05:16.018Z,11.90
2018-12-03T10:07:50.603Z,12.00
2018-12-03T10:10:24.970Z,12.10
2018-12-03T10:13:04.833Z,12.20
2018-12-03T10:15:39.142Z,12.20
2018-12-03T10:18:13.515Z,12.20
2018-12-03T10:20:52.554Z,12.20
2018-12-03T10:23:27.169Z,12.20
2018-12-03T10:26:01.904Z,12.20
2018-12-03T10:28:36.301Z,12.20
2018-12-03T10:31:13.204Z,12.20
2018-12-03T10:33:48.614Z,12.20
2018-12-03T10:36:22.952Z,12.20
2018-12-03T10:38:57.276Z,12.30
2018-12-03T10:41:32.105Z,12.40
2018-12-03T10:44:06.539Z,12.50
2018-12-03T10:46:40.858Z,12.50
2018-12-03T10:49:15.305Z,12.60
2018-12-03T10:51:49.630Z,12.60
2018-12-03T10:54:24.104Z,12.70
2018-12-03T10:57:02.281Z,12.70
2018-12-03T10:59:36.739Z,12.80
2018-12-03T11:02:16.520Z,12.80
2018-12-03T11:04:56.585Z,12.90
2018-12-03T11:07:31.069Z,13.00
2018-12-03T11:10:06.849Z,13.00
2018-12-03T11:12:41.259Z,13.00
2018-12-03T11:15:15.657Z,13.10
2018-12-03T11:17:50.181Z,13.10
2018-12-03T11:20:24.500Z,13.10
2018-12-03T11:22:59.007Z,13.20
2018-12-03T11:25:35.687Z,13.30
2018-12-03T11:28:12.500Z,13.40
2018-12-03T11:30:55.484Z,13.40
2018-12-03T11:33:29.937Z,13.50
2018-12-03T11:36:04.428Z,13.50
2018-12-03T11:38:48.938Z,13.50
2018-12-03T11:41:23.228Z,13.50
2018-12-03T11:43:57.508Z,13.60
2018-12-03T11:46:31.895Z,13.60
2018-12-03T11:49:07.305Z,13.70
2018-12-03T11:51:41.696Z,13.80
2018-12-03T11:54:16.219Z,13.70
2018-12-03T11:56:50.608Z,13.80
2018-12-03T11:59:25.009Z,13.80
2018-12-03T12:01:59.441Z,13.90
2018-12-03T12:04:33.900Z,13.90
2018-12-03T12:07:08.312Z,13.80
2018-12-03T12:09:42.635Z,13.80
2018-12-03T12:12:17.047Z,13.80
2018-12-03T12:14:51.634Z,13.80
2018-12-03T12:17:26.095Z,13.80
2018-12-03T12:20:00.546Z,13.90
2018-12-03T12:22:35.973Z,13.90
2018-12-03T12:25:11.832Z,13.90
2018-12-03T12:27:48.616Z,13.90
2018-12-03T12:30:23.019Z,14.00
2018-12-03T12:32:57.420Z,14.10
2018-12-03T12:35:31.879Z,14.20
2018-12-03T12:38:06.480Z,14.20
2018-12-03T12:40:40.941Z,14.20
2018-12-03T12:43:15.420Z,14.20
2018-12-03T12:45:54.742Z,14.20
2018-12-03T12:48:29.242Z,14.20
2018-12-03T12:51:03.682Z,14.20
2018-12-03T12:53:38.063Z,14.20
2018-12-03T12:56:12.477Z,14.20
2018-12-03T12:58:46.801Z,14.20
2018-12-03T13:01:21.245Z,14.30
2018-12-03T13:03:55.620Z,14.30
2018-12-03T13:06:30.039Z,14.40
2018-12-03T13:09:08.177Z,14.30
2018-12-03T13:11:42.549Z,14.30
2018-12-03T13:14:16.944Z,14.30
2018-12-03T13:16:51.284Z,14.20
2018-12-03T13:19:25.734Z,14.20
2018-12-03T13:22:00.177Z,14.20
2018-12-03T13:24:34.433Z,14.20
2018-12-03T13:27:08.828Z,14.20
2018-12-03T13:29:43.107Z,14.20
2018-12-03T13:32:17.394Z,14.20
2018-12-03T13:34:51.743Z,14.20
2018-12-03T13:37:25.973Z,14.20
2018-12-03T13:40:00.336Z,14.20
2018-12-03T13:42:34.823Z,14.10
2018-12-03T13:45:13.680Z,14.10
2018-12-03T13:47:48.409Z,14.00
2018-12-03T13:50:22.819Z,14.00
2018-12-03T13:52:57.098Z,14.00
2018-12-03T13:55:31.561Z,14.00
2018-12-03T13:58:06.244Z,13.90
2018-12-03T14:00:40.568Z,13.90
2018-12-03T14:03:23.716Z,13.90
2018-12-03T14:06:03.060Z,13.90
2018-12-03T14:10:53.392Z,13.90
2018-12-03T14:13:37.984Z,13.90
2018-12-03T14:16:26.569Z,13.80
2018-12-03T14:19:04.168Z,13.80
2018-12-03T14:21:41.684Z,13.80
2018-12-03T14:24:20.072Z,13.70
2018-12-03T14:26:54.723Z,13.60
2018-12-03T14:29:28.997Z,13.60
2018-12-03T14:32:03.439Z,13.50
2018-12-03T14:34:37.851Z,13.50
2018-12-03T14:37:12.302Z,13.50
2018-12-03T14:39:46.718Z,13.40
2018-12-03T14:42:21.127Z,13.30
2018-12-03T14:44:55.442Z,13.30
2018-12-03T14:47:29.897Z,13.30
2018-12-03T14:50:06.414Z,13.30
2018-12-03T14:52:40.908Z,13.30
2018-12-03T14:55:15.210Z,13.30
2018-12-03T14:57:49.505Z,13.30
2018-12-03T15:00:23.842Z,13.40
2018-12-03T15:02:58.122Z,13.50
2018-12-03T15:05:32.457Z,13.60
2018-12-03T15:08:06.775Z,13.60
2018-12-03T15:10:42.182Z,13.60
2018-12-03T15:13:16.604Z,13.60
2018-12-03T15:15:51.005Z,13.70
2018-12-03T15:18:25.377Z,13.70
2018-12-03T15:20:59.706Z,13.70
2018-12-03T15:23:34.139Z,13.60
2018-12-03T15:26:08.480Z,13.60
2018-12-03T15:28:42.809Z,13.70
2018-12-03T15:31:17.221Z,13.60
2018-12-03T15:33:51.639Z,13.60
2018-12-03T15:36:26.131Z,13.60
2018-12-03T15:39:00.684Z,13.60
2018-12-03T15:41:35.266Z,13.60
2018-12-03T15:44:09.629Z,13.60
2018-12-03T15:46:43.950Z,13.50
2018-12-03T15:49:18.301Z,13.40
2018-12-03T15:51:52.657Z,13.40
2018-12-03T15:54:26.972Z,13.30
2018-12-03T15:57:01.384Z,13.30
2018-12-03T15:59:35.684Z,13.30
2018-12-03T16:02:10.072Z,13.20
2018-12-03T16:04:44.445Z,13.20
2018-12-03T16:07:18.890Z,13.10
2018-12-03T16:09:53.164Z,13.10
2018-12-03T16:12:27.505Z,13.10
2018-12-03T16:15:01.685Z,13.10
2018-12-03T16:17:36.105Z,13.00
2018-12-03T16:20:11.088Z,13.00
2018-12-03T16:22:45.301Z,13.00
2018-12-03T16:25:19.646Z,12.90
2018-12-03T16:27:53.957Z,12.90
2018-12-03T16:30:28.217Z,13.00
2018-12-03T16:33:02.584Z,12.90
2018-12-03T16:35:37.086Z,12.90
2018-12-03T16:38:11.481Z,12.90
2018-12-03T16:40:45.766Z,12.90
2018-12-03T16:43:19.958Z,12.80
2018-12-03T16:45:54.290Z,12.80
2018-12-03T16:48:28.641Z,12.80
2018-12-03T16:51:03.031Z,12.80
2018-12-03T16:53:37.283Z,12.90
2018-12-03T16:56:11.519Z,12.90
2018-12-03T16:58:45.871Z,13.00
2018-12-03T17:01:20.075Z,13.00
2018-12-03T17:03:54.412Z,13.00
2018-12-03T17:06:28.754Z,13.10
2018-12-03T17:09:03.038Z,13.10
2018-12-03T17:11:37.933Z,13.10
2018-12-03T17:14:12.405Z,13.10
2018-12-03T17:16:46.810Z,13.00
2018-12-03T17:19:21.229Z,13.00
2018-12-03T17:22:08.455Z,13.00
2018-12-03T17:24:44.115Z,13.00
2018-12-03T17:27:18.600Z,13.00
2018-12-03T17:29:53.074Z,13.00
2018-12-03T17:32:27.549Z,13.10
2018-12-03T17:35:01.906Z,13.10
2018-12-03T17:37:36.289Z,13.00
2018-12-03T17:40:11.325Z,13.00
2018-12-03T17:42:45.760Z,12.90
2018-12-03T17:45:20.544Z,12.90
2018-12-03T17:47:54.929Z,12.80
2018-12-03T17:50:29.290Z,12.80
2018-12-03T17:53:03.677Z,12.70
2018-12-03T17:55:38.265Z,12.60
2018-12-03T17:58:12.594Z,12.50
2018-12-03T18:00:46.931Z,12.40
2018-12-03T18:03:21.314Z,12.50
2018-12-03T18:05:55.929Z,12.40
2018-12-03T18:08:30.217Z,12.30
2018-12-03T18:11:04.679Z,12.30
2018-12-03T18:13:39.106Z,12.30
2018-12-03T18:16:13.552Z,12.20
2018-12-03T18:18:47.857Z,12.20
2018-12-03T18:21:22.381Z,12.20
2018-12-03T18:23:56.843Z,12.20
2018-12-03T18:26:31.208Z,12.20
2018-12-03T18:29:05.638Z,12.10
2018-12-03T18:31:39.926Z,12.00
2018-12-03T18:34:14.438Z,11.90
2018-12-03T18:36:48.892Z,11.80
2018-12-03T18:39:23.246Z,11.80
2018-12-03T18:41:57.598Z,11.80
2018-12-03T18:44:32.029Z,11.80
2018-12-03T18:47:06.587Z,11.70
2018-12-03T18:49:44.582Z,11.70
2018-12-03T18:52:20.568Z,11.70
2018-12-03T18:54:54.983Z,11.70
2018-12-03T18:57:29.284Z,11.60
2018-12-03T19:00:05.133Z,11.50
2018-12-03T19:02:39.534Z,11.40
2018-12-03T19:05:13.867Z,11.40
2018-12-03T19:07:48.388Z,11.40
2018-12-03T19:10:22.828Z,11.40
2018-12-03T19:12:57.199Z,11.30
2018-12-03T19:15:31.518Z,11.30
2018-12-03T19:18:05.926Z,11.30
2018-12-03T19:20:40.515Z,11.30
2018-12-03T19:23:15.042Z,11.20
2018-12-03T19:25:49.326Z,11.20
2018-12-03T19:28:23.646Z,11.20
2018-12-03T19:30:57.996Z,11.20
2018-12-03T19:33:32.279Z,11.20
2018-12-03T19:36:06.589Z,11.10
2018-12-03T19:38:40.934Z,11.10
2018-12-03T19:41:15.331Z,11.20
2018-12-03T19:43:49.766Z,11.10
2018-12-03T19:46:52.120Z,11.10
2018-12-03T19:49:26.658Z,11.10
2018-12-03T19:52:01.475Z,11.10
2018-12-03T19:54:35.876Z,11.00
2018-12-03T19:57:10.403Z,10.90
2018-12-03T19:59:48.933Z,10.80
2018-12-03T20:02:23.366Z,10.70
2018-12-03T20:05:01.034Z,10.70
2018-12-03T20:07:35.579Z,10.70
2018-12-03T20:10:09.985Z,10.70
2018-12-03T20:12:44.418Z,10.60
2018-12-03T20:15:18.920Z,10.50
2018-12-03T20:17:53.141Z,10.60
2018-12-03T20:20:32.618Z,10.60
2018-12-03T20:23:11.445Z,10.60
2018-12-03T20:25:53.712Z,10.70
2018-12-03T20:28:37.137Z,10.80
2018-12-03T20:31:26.309Z,10.90
2018-12-03T20:34:08.630Z,10.90
2018-12-03T20:36:58.800Z,11.00
2018-12-03T20:39:44.169Z,10.90
2018-12-03T20:42:18.975Z,10.90
2018-12-03T20:46:01.589Z,10.90
2018-12-03T20:48:44.713Z,10.90
2018-12-03T20:51:28.003Z,10.80
2018-12-03T20:54:02.521Z,10.80
2018-12-03T20:56:36.853Z,10.80
2018-12-03T20:59:11.234Z,10.80
2018-12-03T21:01:46.892Z,10.80
2018-12-03T21:04:22.693Z,10.80
2018-12-03T21:06:56.987Z,10.90
2018-12-03T21:09:31.221Z,10.90
2018-12-03T21:12:05.766Z,11.00
2018-12-03T21:14:40.010Z,11.00
2018-12-03T21:17:14.763Z,11.00
2018-12-03T21:19:54.984Z,11.10
2018-12-03T21:22:29.385Z,11.20
2018-12-03T21:25:03.816Z,11.30
2018-12-03T21:27:38.235Z,11.30
2018-12-03T21:30:12.673Z,11.30
2018-12-03T21:32:47.019Z,11.30
2018-12-03T21:35:21.436Z,11.30
2018-12-03T21:37:56.733Z,11.20
2018-12-03T21:40:30.998Z,11.20
2018-12-03T21:43:05.442Z,11.20
2018-12-03T21:45:39.910Z,11.10
2018-12-03T21:48:14.365Z,11.10
2018-12-03T21:50:48.989Z,11.10
2018-12-03T21:53:23.482Z,11.00
2018-12-03T21:55:57.963Z,11.00
2018-12-03T21:58:32.398Z,11.00
2018-12-03T22:01:06.805Z,10.90
2018-12-03T22:03:41.188Z,10.90
2018-12-03T22:06:22.394Z,10.90
2018-12-03T22:08:56.825Z,10.90
2018-12-03T22:11:31.216Z,10.80
2018-12-03T22:14:05.530Z,10.80
2018-12-03T22:16:39.901Z,10.70
2018-12-03T22:19:14.274Z,10.70
2018-12-03T22:21:48.642Z,10.70
2018-12-03T22:24:23.042Z,10.70
2018-12-03T22:26:57.492Z,10.70
2018-12-03T22:29:32.123Z,10.70
2018-12-03T22:32:06.706Z,10.70
2018-12-03T22:34:41.115Z,10.70
2018-12-03T22:37:15.665Z,10.60
2018-12-03T22:39:50.227Z,10.60
2018-12-03T22:42:24.605Z,10.60
2018-12-03T22:44:59.163Z,10.60
2018-12-03T22:47:33.689Z,10.60
2018-12-03T22:50:08.201Z,10.60
2018-12-03T22:52:42.596Z,10.60
2018-12-03T22:55:16.970Z,10.70
2018-12-03T22:57:51.386Z,10.80
2018-12-03T23:00:31.859Z,10.80
2018-12-03T23:03:06.457Z,10.90
2018-12-03T23:05:40.936Z,10.90
2018-12-03T23:08:15.477Z,10.80
2018-12-03T23:10:49.913Z,10.80
2018-12-03T23:13:24.340Z,10.80
2018-12-03T23:15:58.743Z,10.70
2018-12-03T23:18:33.141Z,10.70
2018-12-03T23:21:07.563Z,10.70
2018-12-03T23:23:42.009Z,10.70
2018-12-03T23:26:16.467Z,10.60
2018-12-03T23:28:50.789Z,10.60
2018-12-03T23:31:25.144Z,10.70
2018-12-03T23:33:59.596Z,10.70
2018-12-03T23:36:33.936Z,10.70
2018-12-03T23:39:08.394Z,10.60
2018-12-03T23:41:42.854Z,10.50
2018-12-03T23:44:17.353Z,10.50
2018-12-03T23:46:51.735Z,10.40
2018-12-03T23:49:26.177Z,10.40
2018-12-03T23:52:00.626Z,10.40
2018-12-03T23:54:35.066Z,10.30
2018-12-03T23:57:09.465Z,10.30
2018-12-03T23:59:43.862Z,10.30
